sensor_id;sensor_type;location;lat;lon;timestamp;P1;durP1;ratioP1;P2;durP2;ratioP2
63690;SDS011;49837;57.280;27.070;2022-12-05T00:00:38;12.0;;;7.9;;
63690;SDS011;49837;57.280;27.070;2022-12-05T00:01:39;14.0;;;8.3;;
63690;SDS011;49837;57.280;27.070;2022-12-05T00:02:39;13.6;;;8.1;;
63690;SDS011;49837;57.280;27.070;2022-12-05T00:03:39;12.7;;;7.9;;
63690;SDS011;49837;57.280;27.070;2022-12-05T00:04:39;13.4;;;8.2;;
63690;SDS011;49837;57.280;27.070;2022-12-05T00:05:40;15.1;;;8.5;;
63690;SDS011;49837;57.280;27.070;2022-12-05T00:06:41;12.1;;;7.5;;
63690;SDS011;49837;57.280;27.070;2022-12-05T00:07:40;12.1;;;7.5;;
63690;SDS011;49837;57.280;27.070;2022-12-05T00:08:41;12.3;;;7.6;;
63690;SDS011;49837;57.280;27.070;2022-12-05T00:09:41;13.1;;;7.9;;
63690;SDS011;49837;57.280;27.070;2022-12-05T00:10:42;13.2;;;7.6;;
63690;SDS011;49837;57.280;27.070;2022-12-05T00:11:42;11.3;;;7.3;;
63690;SDS011;49837;57.280;27.070;2022-12-05T00:12:43;11.6;;;7.1;;
63690;SDS011;49837;57.280;27.070;2022-12-05T00:13:43;11.1;;;6.9;;
63690;SDS011;49837;57.280;27.070;2022-12-05T00:14:43;11.4;;;7.5;;
63690;SDS011;49837;57.280;27.070;2022-12-05T00:15:44;13.2;;;7.9;;
63690;SDS011;49837;57.280;27.070;2022-12-05T00:16:44;12.9;;;7.8;;
63690;SDS011;49837;57.280;27.070;2022-12-05T00:17:45;11.2;;;7.4;;
63690;SDS011;49837;57.280;27.070;2022-12-05T00:18:45;13.2;;;7.1;;
63690;SDS011;49837;57.280;27.070;2022-12-05T00:19:46;12.5;;;7.0;;
63690;SDS011;49837;57.280;27.070;2022-12-05T00:20:50;11.9;;;7.9;;
63690;SDS011;49837;57.280;27.070;2022-12-05T00:21:51;11.8;;;6.9;;
63690;SDS011;49837;57.280;27.070;2022-12-05T00:22:51;10.9;;;6.7;;
63690;SDS011;49837;57.280;27.070;2022-12-05T00:23:52;11.2;;;6.9;;
63690;SDS011;49837;57.280;27.070;2022-12-05T00:24:52;12.5;;;7.0;;
63690;SDS011;49837;57.280;27.070;2022-12-05T00:25:52;12.0;;;7.2;;
63690;SDS011;49837;57.280;27.070;2022-12-05T00:26:53;11.7;;;7.3;;
63690;SDS011;49837;57.280;27.070;2022-12-05T00:27:53;11.0;;;7.2;;
63690;SDS011;49837;57.280;27.070;2022-12-05T00:28:55;11.2;;;6.8;;
63690;SDS011;49837;57.280;27.070;2022-12-05T00:29:54;11.9;;;7.4;;
63690;SDS011;49837;57.280;27.070;2022-12-05T00:30:55;11.1;;;6.8;;
63690;SDS011;49837;57.280;27.070;2022-12-05T00:31:55;11.4;;;7.5;;
63690;SDS011;49837;57.280;27.070;2022-12-05T00:32:56;10.8;;;7.1;;
63690;SDS011;49837;57.280;27.070;2022-12-05T00:33:58;11.1;;;7.3;;
63690;SDS011;49837;57.280;27.070;2022-12-05T00:34:56;11.0;;;7.0;;
63690;SDS011;49837;57.280;27.070;2022-12-05T00:36:00;13.0;;;7.9;;
63690;SDS011;49837;57.280;27.070;2022-12-05T00:36:59;11.9;;;7.4;;
63690;SDS011;49837;57.280;27.070;2022-12-05T00:38:00;10.6;;;6.7;;
63690;SDS011;49837;57.280;27.070;2022-12-05T00:39:02;10.8;;;7.1;;
63690;SDS011;49837;57.280;27.070;2022-12-05T00:40:02;11.8;;;7.0;;
63690;SDS011;49837;57.280;27.070;2022-12-05T00:41:03;11.5;;;6.6;;
63690;SDS011;49837;57.280;27.070;2022-12-05T00:42:03;12.4;;;7.5;;
63690;SDS011;49837;57.280;27.070;2022-12-05T00:43:03;12.6;;;7.7;;
63690;SDS011;49837;57.280;27.070;2022-12-05T00:44:04;11.2;;;6.8;;
63690;SDS011;49837;57.280;27.070;2022-12-05T00:45:05;11.9;;;6.9;;
63690;SDS011;49837;57.280;27.070;2022-12-05T00:46:10;12.7;;;7.4;;
63690;SDS011;49837;57.280;27.070;2022-12-05T00:47:07;11.1;;;7.2;;
63690;SDS011;49837;57.280;27.070;2022-12-05T00:48:07;11.7;;;6.9;;
63690;SDS011;49837;57.280;27.070;2022-12-05T00:49:09;12.3;;;7.3;;
63690;SDS011;49837;57.280;27.070;2022-12-05T00:50:08;12.2;;;7.0;;
63690;SDS011;49837;57.280;27.070;2022-12-05T00:51:10;11.8;;;7.1;;
63690;SDS011;49837;57.280;27.070;2022-12-05T00:52:13;13.0;;;7.3;;
63690;SDS011;49837;57.280;27.070;2022-12-05T00:53:13;12.4;;;7.3;;
63690;SDS011;49837;57.280;27.070;2022-12-05T00:54:15;11.1;;;7.0;;
63690;SDS011;49837;57.280;27.070;2022-12-05T00:55:15;11.5;;;6.7;;
63690;SDS011;49837;57.280;27.070;2022-12-05T00:56:17;10.4;;;7.2;;
63690;SDS011;49837;57.280;27.070;2022-12-05T00:57:17;10.7;;;6.7;;
63690;SDS011;49837;57.280;27.070;2022-12-05T00:58:17;10.5;;;7.0;;
63690;SDS011;49837;57.280;27.070;2022-12-05T00:59:18;11.1;;;6.9;;
63690;SDS011;49837;57.280;27.070;2022-12-05T01:00:18;10.8;;;6.9;;
63690;SDS011;49837;57.280;27.070;2022-12-05T01:01:23;11.4;;;6.7;;
63690;SDS011;49837;57.280;27.070;2022-12-05T01:02:22;11.4;;;7.3;;
63690;SDS011;49837;57.280;27.070;2022-12-05T01:03:23;12.6;;;6.9;;
63690;SDS011;49837;57.280;27.070;2022-12-05T01:04:23;9.8;;;6.6;;
63690;SDS011;49837;57.280;27.070;2022-12-05T01:05:23;11.1;;;6.8;;
63690;SDS011;49837;57.280;27.070;2022-12-05T01:06:24;10.9;;;6.7;;
63690;SDS011;49837;57.280;27.070;2022-12-05T01:07:24;12.1;;;6.9;;
63690;SDS011;49837;57.280;27.070;2022-12-05T01:08:25;10.3;;;6.8;;
63690;SDS011;49837;57.280;27.070;2022-12-05T01:09:25;9.7;;;5.9;;
63690;SDS011;49837;57.280;27.070;2022-12-05T01:10:25;9.9;;;6.3;;
63690;SDS011;49837;57.280;27.070;2022-12-05T01:11:26;13.2;;;6.7;;
63690;SDS011;49837;57.280;27.070;2022-12-05T01:12:26;10.0;;;6.7;;
63690;SDS011;49837;57.280;27.070;2022-12-05T01:13:27;10.4;;;6.1;;
63690;SDS011;49837;57.280;27.070;2022-12-05T01:14:27;9.4;;;6.2;;
63690;SDS011;49837;57.280;27.070;2022-12-05T01:15:28;9.5;;;6.2;;
63690;SDS011;49837;57.280;27.070;2022-12-05T01:16:29;9.9;;;6.2;;
63690;SDS011;49837;57.280;27.070;2022-12-05T01:17:32;10.5;;;6.3;;
63690;SDS011;49837;57.280;27.070;2022-12-05T01:18:32;9.5;;;6.3;;
63690;SDS011;49837;57.280;27.070;2022-12-05T01:19:33;9.2;;;6.1;;
63690;SDS011;49837;57.280;27.070;2022-12-05T01:20:33;9.1;;;6.1;;
63690;SDS011;49837;57.280;27.070;2022-12-05T01:21:34;9.5;;;5.9;;
63690;SDS011;49837;57.280;27.070;2022-12-05T01:22:34;10.9;;;6.5;;
63690;SDS011;49837;57.280;27.070;2022-12-05T01:23:34;9.0;;;6.0;;
63690;SDS011;49837;57.280;27.070;2022-12-05T01:24:35;8.8;;;5.8;;
63690;SDS011;49837;57.280;27.070;2022-12-05T01:25:38;9.1;;;5.9;;
63690;SDS011;49837;57.280;27.070;2022-12-05T01:26:36;10.4;;;6.3;;
63690;SDS011;49837;57.280;27.070;2022-12-05T01:27:36;9.4;;;5.9;;
63690;SDS011;49837;57.280;27.070;2022-12-05T01:28:37;10.0;;;6.1;;
63690;SDS011;49837;57.280;27.070;2022-12-05T01:29:37;9.4;;;6.2;;
63690;SDS011;49837;57.280;27.070;2022-12-05T01:30:38;9.3;;;5.7;;
63690;SDS011;49837;57.280;27.070;2022-12-05T01:31:38;10.2;;;6.2;;
63690;SDS011;49837;57.280;27.070;2022-12-05T01:32:38;9.2;;;6.1;;
63690;SDS011;49837;57.280;27.070;2022-12-05T01:33:39;9.6;;;6.1;;
63690;SDS011;49837;57.280;27.070;2022-12-05T01:34:39;9.4;;;5.8;;
63690;SDS011;49837;57.280;27.070;2022-12-05T01:35:39;9.6;;;5.9;;
63690;SDS011;49837;57.280;27.070;2022-12-05T01:36:40;9.2;;;5.5;;
63690;SDS011;49837;57.280;27.070;2022-12-05T01:37:40;9.8;;;5.9;;
63690;SDS011;49837;57.280;27.070;2022-12-05T01:38:41;9.9;;;6.0;;
63690;SDS011;49837;57.280;27.070;2022-12-05T01:39:41;10.5;;;6.5;;
63690;SDS011;49837;57.280;27.070;2022-12-05T01:40:42;9.9;;;6.2;;
63690;SDS011;49837;57.280;27.070;2022-12-05T01:41:43;8.2;;;5.7;;
63690;SDS011;49837;57.280;27.070;2022-12-05T01:42:42;9.2;;;6.1;;
63690;SDS011;49837;57.280;27.070;2022-12-05T01:43:59;11.6;;;6.5;;
63690;SDS011;49837;57.280;27.070;2022-12-05T01:44:57;9.5;;;6.3;;
63690;SDS011;49837;57.280;27.070;2022-12-05T01:45:52;9.0;;;5.7;;
63690;SDS011;49837;57.280;27.070;2022-12-05T01:46:52;8.3;;;5.6;;
63690;SDS011;49837;57.280;27.070;2022-12-05T01:47:53;10.6;;;6.1;;
63690;SDS011;49837;57.280;27.070;2022-12-05T01:48:54;8.7;;;5.8;;
63690;SDS011;49837;57.280;27.070;2022-12-05T01:49:56;9.4;;;5.9;;
63690;SDS011;49837;57.280;27.070;2022-12-05T01:50:57;8.7;;;6.0;;
63690;SDS011;49837;57.280;27.070;2022-12-05T01:51:59;9.1;;;5.8;;
63690;SDS011;49837;57.280;27.070;2022-12-05T01:53:00;9.7;;;6.4;;
63690;SDS011;49837;57.280;27.070;2022-12-05T01:54:00;9.0;;;6.0;;
63690;SDS011;49837;57.280;27.070;2022-12-05T01:55:03;9.1;;;6.0;;
63690;SDS011;49837;57.280;27.070;2022-12-05T01:56:05;10.3;;;6.2;;
63690;SDS011;49837;57.280;27.070;2022-12-05T01:57:07;11.1;;;6.4;;
63690;SDS011;49837;57.280;27.070;2022-12-05T01:58:07;9.7;;;6.3;;
63690;SDS011;49837;57.280;27.070;2022-12-05T01:59:08;9.5;;;6.0;;
63690;SDS011;49837;57.280;27.070;2022-12-05T02:00:10;8.7;;;5.8;;
63690;SDS011;49837;57.280;27.070;2022-12-05T02:01:11;9.6;;;6.2;;
63690;SDS011;49837;57.280;27.070;2022-12-05T02:02:12;8.9;;;5.7;;
63690;SDS011;49837;57.280;27.070;2022-12-05T02:03:14;8.9;;;5.3;;
63690;SDS011;49837;57.280;27.070;2022-12-05T02:04:15;10.1;;;6.2;;
63690;SDS011;49837;57.280;27.070;2022-12-05T02:05:31;9.1;;;6.0;;
63690;SDS011;49837;57.280;27.070;2022-12-05T02:06:18;11.4;;;6.1;;
63690;SDS011;49837;57.280;27.070;2022-12-05T02:07:18;9.6;;;6.0;;
63690;SDS011;49837;57.280;27.070;2022-12-05T02:08:19;9.8;;;6.0;;
63690;SDS011;49837;57.280;27.070;2022-12-05T02:09:19;9.2;;;6.2;;
63690;SDS011;49837;57.280;27.070;2022-12-05T02:10:19;8.8;;;5.6;;
63690;SDS011;49837;57.280;27.070;2022-12-05T02:11:20;9.1;;;5.9;;
63690;SDS011;49837;57.280;27.070;2022-12-05T02:12:20;8.6;;;5.7;;
63690;SDS011;49837;57.280;27.070;2022-12-05T02:14:29;10.4;;;6.6;;
63690;SDS011;49837;57.280;27.070;2022-12-05T02:15:35;10.9;;;5.9;;
63690;SDS011;49837;57.280;27.070;2022-12-05T02:18:49;9.3;;;5.7;;
63690;SDS011;49837;57.280;27.070;2022-12-05T02:20:43;9.3;;;5.8;;
63690;SDS011;49837;57.280;27.070;2022-12-05T02:21:44;8.8;;;5.9;;
63690;SDS011;49837;57.280;27.070;2022-12-05T02:22:44;8.7;;;5.7;;
63690;SDS011;49837;57.280;27.070;2022-12-05T02:23:54;9.2;;;5.7;;
63690;SDS011;49837;57.280;27.070;2022-12-05T02:24:54;8.6;;;5.7;;
63690;SDS011;49837;57.280;27.070;2022-12-05T02:30:06;9.3;;;5.6;;
63690;SDS011;49837;57.280;27.070;2022-12-05T02:31:07;8.4;;;5.0;;
63690;SDS011;49837;57.280;27.070;2022-12-05T02:33:20;15.6;;;7.5;;
63690;SDS011;49837;57.280;27.070;2022-12-05T02:35:33;10.6;;;6.1;;
63690;SDS011;49837;57.280;27.070;2022-12-05T02:36:21;9.7;;;5.7;;
63690;SDS011;49837;57.280;27.070;2022-12-05T02:38:28;8.6;;;5.8;;
63690;SDS011;49837;57.280;27.070;2022-12-05T02:39:36;9.4;;;5.9;;
63690;SDS011;49837;57.280;27.070;2022-12-05T02:40:43;9.8;;;5.8;;
63690;SDS011;49837;57.280;27.070;2022-12-05T02:41:36;10.7;;;6.2;;
63690;SDS011;49837;57.280;27.070;2022-12-05T02:42:48;9.3;;;5.9;;
63690;SDS011;49837;57.280;27.070;2022-12-05T02:45:38;11.5;;;6.1;;
63690;SDS011;49837;57.280;27.070;2022-12-05T02:46:39;10.4;;;6.6;;
63690;SDS011;49837;57.280;27.070;2022-12-05T02:47:50;9.2;;;5.9;;
63690;SDS011;49837;57.280;27.070;2022-12-05T02:48:42;8.6;;;5.6;;
63690;SDS011;49837;57.280;27.070;2022-12-05T02:49:43;11.1;;;6.5;;
63690;SDS011;49837;57.280;27.070;2022-12-05T02:50:43;10.6;;;6.4;;
63690;SDS011;49837;57.280;27.070;2022-12-05T02:51:46;12.2;;;7.3;;
63690;SDS011;49837;57.280;27.070;2022-12-05T02:52:46;12.4;;;7.1;;
63690;SDS011;49837;57.280;27.070;2022-12-05T02:53:47;10.1;;;5.8;;
63690;SDS011;49837;57.280;27.070;2022-12-05T02:54:47;11.1;;;6.2;;
63690;SDS011;49837;57.280;27.070;2022-12-05T02:55:47;10.2;;;5.8;;
63690;SDS011;49837;57.280;27.070;2022-12-05T02:56:48;9.9;;;6.4;;
63690;SDS011;49837;57.280;27.070;2022-12-05T02:57:51;10.5;;;6.1;;
63690;SDS011;49837;57.280;27.070;2022-12-05T02:58:53;9.6;;;5.8;;
63690;SDS011;49837;57.280;27.070;2022-12-05T02:59:52;9.6;;;5.6;;
63690;SDS011;49837;57.280;27.070;2022-12-05T03:00:54;9.3;;;5.7;;
63690;SDS011;49837;57.280;27.070;2022-12-05T03:01:53;9.2;;;5.7;;
63690;SDS011;49837;57.280;27.070;2022-12-05T03:02:55;9.9;;;5.5;;
63690;SDS011;49837;57.280;27.070;2022-12-05T03:03:55;9.3;;;5.6;;
63690;SDS011;49837;57.280;27.070;2022-12-05T03:04:57;10.3;;;6.8;;
63690;SDS011;49837;57.280;27.070;2022-12-05T03:06:08;10.5;;;6.1;;
63690;SDS011;49837;57.280;27.070;2022-12-05T03:07:04;9.3;;;5.7;;
63690;SDS011;49837;57.280;27.070;2022-12-05T03:08:03;11.5;;;6.4;;
63690;SDS011;49837;57.280;27.070;2022-12-05T03:09:08;11.3;;;6.3;;
63690;SDS011;49837;57.280;27.070;2022-12-05T03:10:08;11.4;;;7.0;;
63690;SDS011;49837;57.280;27.070;2022-12-05T03:11:08;10.1;;;6.1;;
63690;SDS011;49837;57.280;27.070;2022-12-05T03:12:12;8.8;;;5.9;;
63690;SDS011;49837;57.280;27.070;2022-12-05T03:13:12;9.1;;;5.5;;
63690;SDS011;49837;57.280;27.070;2022-12-05T03:14:14;10.2;;;5.7;;
63690;SDS011;49837;57.280;27.070;2022-12-05T03:15:19;8.8;;;5.3;;
63690;SDS011;49837;57.280;27.070;2022-12-05T03:16:25;8.5;;;5.2;;
63690;SDS011;49837;57.280;27.070;2022-12-05T03:17:25;9.1;;;5.6;;
63690;SDS011;49837;57.280;27.070;2022-12-05T03:18:42;9.5;;;5.3;;
63690;SDS011;49837;57.280;27.070;2022-12-05T03:19:40;9.0;;;5.5;;
63690;SDS011;49837;57.280;27.070;2022-12-05T03:20:35;9.1;;;5.4;;
63690;SDS011;49837;57.280;27.070;2022-12-05T03:21:36;9.2;;;5.5;;
63690;SDS011;49837;57.280;27.070;2022-12-05T03:22:57;9.2;;;5.7;;
63690;SDS011;49837;57.280;27.070;2022-12-05T03:23:41;10.1;;;6.0;;
63690;SDS011;49837;57.280;27.070;2022-12-05T03:24:43;9.6;;;6.0;;
63690;SDS011;49837;57.280;27.070;2022-12-05T03:25:49;9.0;;;5.5;;
63690;SDS011;49837;57.280;27.070;2022-12-05T03:27:58;9.4;;;6.3;;
63690;SDS011;49837;57.280;27.070;2022-12-05T03:29:59;9.3;;;6.0;;
63690;SDS011;49837;57.280;27.070;2022-12-05T03:30:59;7.6;;;4.9;;
63690;SDS011;49837;57.280;27.070;2022-12-05T03:34:09;12.7;;;7.3;;
63690;SDS011;49837;57.280;27.070;2022-12-05T03:35:28;13.0;;;7.5;;
63690;SDS011;49837;57.280;27.070;2022-12-05T03:36:16;10.9;;;6.6;;
63690;SDS011;49837;57.280;27.070;2022-12-05T03:38:24;9.9;;;6.2;;
63690;SDS011;49837;57.280;27.070;2022-12-05T03:42:30;13.5;;;7.3;;
63690;SDS011;49837;57.280;27.070;2022-12-05T03:45:46;14.0;;;7.9;;
63690;SDS011;49837;57.280;27.070;2022-12-05T03:46:42;13.4;;;7.6;;
63690;SDS011;49837;57.280;27.070;2022-12-05T03:47:49;12.2;;;7.8;;
63690;SDS011;49837;57.280;27.070;2022-12-05T03:48:51;13.1;;;7.9;;
63690;SDS011;49837;57.280;27.070;2022-12-05T03:49:50;10.8;;;6.6;;
63690;SDS011;49837;57.280;27.070;2022-12-05T03:50:52;12.8;;;6.9;;
63690;SDS011;49837;57.280;27.070;2022-12-05T03:51:53;9.2;;;5.5;;
63690;SDS011;49837;57.280;27.070;2022-12-05T03:52:59;9.4;;;5.7;;
63690;SDS011;49837;57.280;27.070;2022-12-05T03:55:03;10.9;;;6.1;;
63690;SDS011;49837;57.280;27.070;2022-12-05T03:56:07;12.7;;;7.1;;
63690;SDS011;49837;57.280;27.070;2022-12-05T03:57:14;20.8;;;12.9;;
63690;SDS011;49837;57.280;27.070;2022-12-05T03:58:09;14.7;;;8.9;;
63690;SDS011;49837;57.280;27.070;2022-12-05T04:00:16;10.5;;;6.5;;
63690;SDS011;49837;57.280;27.070;2022-12-05T04:01:16;8.8;;;5.5;;
63690;SDS011;49837;57.280;27.070;2022-12-05T04:02:23;10.7;;;5.9;;
63690;SDS011;49837;57.280;27.070;2022-12-05T04:03:29;10.9;;;6.0;;
63690;SDS011;49837;57.280;27.070;2022-12-05T04:04:25;9.5;;;5.8;;
63690;SDS011;49837;57.280;27.070;2022-12-05T04:05:31;9.8;;;5.8;;
63690;SDS011;49837;57.280;27.070;2022-12-05T04:06:34;9.3;;;6.0;;
63690;SDS011;49837;57.280;27.070;2022-12-05T04:07:34;11.4;;;6.3;;
63690;SDS011;49837;57.280;27.070;2022-12-05T04:08:40;10.9;;;6.7;;
63690;SDS011;49837;57.280;27.070;2022-12-05T04:10:36;10.1;;;6.3;;
63690;SDS011;49837;57.280;27.070;2022-12-05T04:11:38;13.5;;;6.0;;
63690;SDS011;49837;57.280;27.070;2022-12-05T04:12:41;11.1;;;5.6;;
63690;SDS011;49837;57.280;27.070;2022-12-05T04:13:43;8.4;;;5.9;;
63690;SDS011;49837;57.280;27.070;2022-12-05T04:14:47;10.3;;;6.0;;
63690;SDS011;49837;57.280;27.070;2022-12-05T04:16:04;11.2;;;6.3;;
63690;SDS011;49837;57.280;27.070;2022-12-05T04:17:00;11.3;;;6.7;;
63690;SDS011;49837;57.280;27.070;2022-12-05T04:17:57;10.9;;;6.8;;
63690;SDS011;49837;57.280;27.070;2022-12-05T04:19:08;10.4;;;7.2;;
63690;SDS011;49837;57.280;27.070;2022-12-05T04:20:04;10.7;;;6.5;;
63690;SDS011;49837;57.280;27.070;2022-12-05T04:21:04;12.7;;;6.4;;
63690;SDS011;49837;57.280;27.070;2022-12-05T04:22:04;10.6;;;6.3;;
63690;SDS011;49837;57.280;27.070;2022-12-05T04:23:05;10.7;;;6.2;;
63690;SDS011;49837;57.280;27.070;2022-12-05T04:24:12;10.8;;;5.9;;
63690;SDS011;49837;57.280;27.070;2022-12-05T04:25:10;11.3;;;6.1;;
63690;SDS011;49837;57.280;27.070;2022-12-05T04:26:12;9.8;;;6.1;;
63690;SDS011;49837;57.280;27.070;2022-12-05T04:27:30;10.7;;;6.2;;
63690;SDS011;49837;57.280;27.070;2022-12-05T04:28:26;11.9;;;6.7;;
63690;SDS011;49837;57.280;27.070;2022-12-05T04:29:18;12.3;;;6.6;;
63690;SDS011;49837;57.280;27.070;2022-12-05T04:30:21;10.9;;;6.7;;
63690;SDS011;49837;57.280;27.070;2022-12-05T04:31:24;10.2;;;6.7;;
63690;SDS011;49837;57.280;27.070;2022-12-05T04:32:23;9.9;;;6.5;;
63690;SDS011;49837;57.280;27.070;2022-12-05T04:34:28;11.8;;;7.0;;
63690;SDS011;49837;57.280;27.070;2022-12-05T04:35:33;9.7;;;6.3;;
63690;SDS011;49837;57.280;27.070;2022-12-05T04:36:32;11.9;;;6.8;;
63690;SDS011;49837;57.280;27.070;2022-12-05T04:37:34;12.6;;;6.8;;
63690;SDS011;49837;57.280;27.070;2022-12-05T04:39:53;12.4;;;6.8;;
63690;SDS011;49837;57.280;27.070;2022-12-05T04:40:43;11.2;;;6.7;;
63690;SDS011;49837;57.280;27.070;2022-12-05T04:41:50;11.2;;;6.8;;
63690;SDS011;49837;57.280;27.070;2022-12-05T04:42:46;13.2;;;8.0;;
63690;SDS011;49837;57.280;27.070;2022-12-05T04:43:46;11.7;;;7.7;;
63690;SDS011;49837;57.280;27.070;2022-12-05T04:44:50;12.2;;;7.7;;
63690;SDS011;49837;57.280;27.070;2022-12-05T04:45:50;13.1;;;8.4;;
63690;SDS011;49837;57.280;27.070;2022-12-05T04:46:51;12.3;;;7.7;;
63690;SDS011;49837;57.280;27.070;2022-12-05T04:47:56;11.6;;;7.1;;
63690;SDS011;49837;57.280;27.070;2022-12-05T04:48:54;16.0;;;8.5;;
63690;SDS011;49837;57.280;27.070;2022-12-05T04:49:56;13.8;;;7.9;;
63690;SDS011;49837;57.280;27.070;2022-12-05T04:50:56;11.9;;;6.8;;
63690;SDS011;49837;57.280;27.070;2022-12-05T04:51:59;11.9;;;7.4;;
63690;SDS011;49837;57.280;27.070;2022-12-05T04:53:00;14.8;;;8.1;;
63690;SDS011;49837;57.280;27.070;2022-12-05T04:54:02;11.9;;;7.8;;
63690;SDS011;49837;57.280;27.070;2022-12-05T04:56:02;10.9;;;7.0;;
63690;SDS011;49837;57.280;27.070;2022-12-05T04:58:11;13.8;;;8.3;;
63690;SDS011;49837;57.280;27.070;2022-12-05T04:59:11;14.0;;;8.4;;
63690;SDS011;49837;57.280;27.070;2022-12-05T05:00:12;13.2;;;7.4;;
63690;SDS011;49837;57.280;27.070;2022-12-05T05:01:29;12.2;;;7.6;;
63690;SDS011;49837;57.280;27.070;2022-12-05T05:02:16;12.6;;;7.9;;
63690;SDS011;49837;57.280;27.070;2022-12-05T05:03:37;13.0;;;7.5;;
63690;SDS011;49837;57.280;27.070;2022-12-05T05:04:25;11.5;;;7.0;;
63690;SDS011;49837;57.280;27.070;2022-12-05T05:05:22;11.1;;;7.3;;
63690;SDS011;49837;57.280;27.070;2022-12-05T05:06:23;14.6;;;7.8;;
63690;SDS011;49837;57.280;27.070;2022-12-05T05:07:23;14.5;;;8.4;;
63690;SDS011;49837;57.280;27.070;2022-12-05T05:08:24;12.8;;;7.6;;
63690;SDS011;49837;57.280;27.070;2022-12-05T05:09:24;11.8;;;7.4;;
63690;SDS011;49837;57.280;27.070;2022-12-05T05:10:26;13.1;;;7.6;;
63690;SDS011;49837;57.280;27.070;2022-12-05T05:11:27;13.3;;;8.1;;
63690;SDS011;49837;57.280;27.070;2022-12-05T05:12:27;13.5;;;8.1;;
63690;SDS011;49837;57.280;27.070;2022-12-05T05:13:27;12.0;;;7.3;;
63690;SDS011;49837;57.280;27.070;2022-12-05T05:14:28;11.2;;;6.8;;
63690;SDS011;49837;57.280;27.070;2022-12-05T05:15:28;12.8;;;7.5;;
63690;SDS011;49837;57.280;27.070;2022-12-05T05:16:30;11.7;;;7.1;;
63690;SDS011;49837;57.280;27.070;2022-12-05T05:17:33;12.8;;;7.1;;
63690;SDS011;49837;57.280;27.070;2022-12-05T05:18:33;12.1;;;7.2;;
63690;SDS011;49837;57.280;27.070;2022-12-05T05:19:33;13.3;;;6.7;;
63690;SDS011;49837;57.280;27.070;2022-12-05T05:20:34;12.6;;;7.0;;
63690;SDS011;49837;57.280;27.070;2022-12-05T05:21:38;14.3;;;7.3;;
63690;SDS011;49837;57.280;27.070;2022-12-05T05:22:37;13.7;;;7.9;;
63690;SDS011;49837;57.280;27.070;2022-12-05T05:23:37;12.7;;;7.9;;
63690;SDS011;49837;57.280;27.070;2022-12-05T05:24:37;12.2;;;7.4;;
63690;SDS011;49837;57.280;27.070;2022-12-05T05:25:38;10.6;;;6.9;;
63690;SDS011;49837;57.280;27.070;2022-12-05T05:26:38;11.9;;;7.3;;
63690;SDS011;49837;57.280;27.070;2022-12-05T05:27:39;15.7;;;8.3;;
63690;SDS011;49837;57.280;27.070;2022-12-05T05:28:39;18.2;;;10.0;;
63690;SDS011;49837;57.280;27.070;2022-12-05T05:29:39;15.1;;;9.0;;
63690;SDS011;49837;57.280;27.070;2022-12-05T05:30:40;14.8;;;7.5;;
63690;SDS011;49837;57.280;27.070;2022-12-05T05:31:40;13.4;;;7.1;;
63690;SDS011;49837;57.280;27.070;2022-12-05T05:32:41;17.7;;;9.0;;
63690;SDS011;49837;57.280;27.070;2022-12-05T05:33:41;20.7;;;10.1;;
63690;SDS011;49837;57.280;27.070;2022-12-05T05:34:41;14.7;;;8.1;;
63690;SDS011;49837;57.280;27.070;2022-12-05T05:35:42;16.8;;;8.4;;
63690;SDS011;49837;57.280;27.070;2022-12-05T05:36:42;16.7;;;8.4;;
63690;SDS011;49837;57.280;27.070;2022-12-05T05:37:43;18.3;;;10.0;;
63690;SDS011;49837;57.280;27.070;2022-12-05T05:38:44;13.4;;;7.9;;
63690;SDS011;49837;57.280;27.070;2022-12-05T05:39:46;11.4;;;6.8;;
63690;SDS011;49837;57.280;27.070;2022-12-05T05:40:46;12.5;;;7.4;;
63690;SDS011;49837;57.280;27.070;2022-12-05T05:41:47;14.1;;;8.3;;
63690;SDS011;49837;57.280;27.070;2022-12-05T05:42:48;15.5;;;9.1;;
63690;SDS011;49837;57.280;27.070;2022-12-05T05:43:48;14.7;;;9.1;;
63690;SDS011;49837;57.280;27.070;2022-12-05T05:44:48;13.9;;;8.1;;
63690;SDS011;49837;57.280;27.070;2022-12-05T05:45:48;14.6;;;8.8;;
63690;SDS011;49837;57.280;27.070;2022-12-05T05:46:49;15.2;;;7.9;;
63690;SDS011;49837;57.280;27.070;2022-12-05T05:47:49;20.0;;;8.7;;
63690;SDS011;49837;57.280;27.070;2022-12-05T05:48:50;20.8;;;10.0;;
63690;SDS011;49837;57.280;27.070;2022-12-05T05:49:50;12.1;;;6.8;;
63690;SDS011;49837;57.280;27.070;2022-12-05T05:50:51;12.6;;;6.9;;
63690;SDS011;49837;57.280;27.070;2022-12-05T05:51:51;14.9;;;7.9;;
63690;SDS011;49837;57.280;27.070;2022-12-05T05:52:51;13.3;;;7.5;;
63690;SDS011;49837;57.280;27.070;2022-12-05T05:53:52;22.5;;;10.6;;
63690;SDS011;49837;57.280;27.070;2022-12-05T05:54:52;18.3;;;9.6;;
63690;SDS011;49837;57.280;27.070;2022-12-05T05:55:52;13.6;;;7.8;;
63690;SDS011;49837;57.280;27.070;2022-12-05T05:56:53;13.8;;;7.4;;
63690;SDS011;49837;57.280;27.070;2022-12-05T05:57:53;23.6;;;12.2;;
63690;SDS011;49837;57.280;27.070;2022-12-05T05:58:55;16.6;;;9.7;;
63690;SDS011;49837;57.280;27.070;2022-12-05T05:59:54;12.6;;;7.6;;
63690;SDS011;49837;57.280;27.070;2022-12-05T06:01:00;14.6;;;7.2;;
63690;SDS011;49837;57.280;27.070;2022-12-05T06:01:56;12.5;;;7.4;;
63690;SDS011;49837;57.280;27.070;2022-12-05T06:02:56;16.2;;;9.8;;
63690;SDS011;49837;57.280;27.070;2022-12-05T06:03:57;14.7;;;7.8;;
63690;SDS011;49837;57.280;27.070;2022-12-05T06:04:57;16.2;;;8.9;;
63690;SDS011;49837;57.280;27.070;2022-12-05T06:05:58;14.5;;;8.0;;
63690;SDS011;49837;57.280;27.070;2022-12-05T06:06:58;12.9;;;7.2;;
63690;SDS011;49837;57.280;27.070;2022-12-05T06:07:59;20.6;;;10.9;;
63690;SDS011;49837;57.280;27.070;2022-12-05T06:08:59;19.1;;;9.8;;
63690;SDS011;49837;57.280;27.070;2022-12-05T06:09:59;18.0;;;10.0;;
63690;SDS011;49837;57.280;27.070;2022-12-05T06:11:10;13.5;;;8.1;;
63690;SDS011;49837;57.280;27.070;2022-12-05T06:12:02;14.5;;;8.4;;
63690;SDS011;49837;57.280;27.070;2022-12-05T06:13:03;20.4;;;11.0;;
63690;SDS011;49837;57.280;27.070;2022-12-05T06:14:03;14.8;;;8.8;;
63690;SDS011;49837;57.280;27.070;2022-12-05T06:15:04;16.6;;;9.6;;
63690;SDS011;49837;57.280;27.070;2022-12-05T06:16:04;12.0;;;7.2;;
63690;SDS011;49837;57.280;27.070;2022-12-05T06:17:04;13.1;;;7.8;;
63690;SDS011;49837;57.280;27.070;2022-12-05T06:18:05;13.9;;;6.9;;
63690;SDS011;49837;57.280;27.070;2022-12-05T06:19:05;11.2;;;6.6;;
63690;SDS011;49837;57.280;27.070;2022-12-05T06:20:06;11.5;;;6.8;;
63690;SDS011;49837;57.280;27.070;2022-12-05T06:21:06;16.6;;;7.5;;
63690;SDS011;49837;57.280;27.070;2022-12-05T06:22:06;15.0;;;8.0;;
63690;SDS011;49837;57.280;27.070;2022-12-05T06:23:06;12.9;;;7.8;;
63690;SDS011;49837;57.280;27.070;2022-12-05T06:24:08;11.5;;;7.3;;
63690;SDS011;49837;57.280;27.070;2022-12-05T06:25:08;13.1;;;7.4;;
63690;SDS011;49837;57.280;27.070;2022-12-05T06:26:12;12.2;;;6.4;;
63690;SDS011;49837;57.280;27.070;2022-12-05T06:27:12;11.0;;;6.7;;
63690;SDS011;49837;57.280;27.070;2022-12-05T06:28:12;14.3;;;6.8;;
63690;SDS011;49837;57.280;27.070;2022-12-05T06:29:12;13.7;;;7.2;;
63690;SDS011;49837;57.280;27.070;2022-12-05T06:30:13;12.4;;;6.5;;
63690;SDS011;49837;57.280;27.070;2022-12-05T06:31:17;13.9;;;6.9;;
63690;SDS011;49837;57.280;27.070;2022-12-05T06:32:16;12.5;;;7.5;;
63690;SDS011;49837;57.280;27.070;2022-12-05T06:33:17;15.8;;;8.3;;
63690;SDS011;49837;57.280;27.070;2022-12-05T06:34:17;16.4;;;7.9;;
63690;SDS011;49837;57.280;27.070;2022-12-05T06:35:17;12.5;;;6.8;;
63690;SDS011;49837;57.280;27.070;2022-12-05T06:36:19;13.5;;;7.1;;
63690;SDS011;49837;57.280;27.070;2022-12-05T06:37:18;16.6;;;9.0;;
63690;SDS011;49837;57.280;27.070;2022-12-05T06:38:18;16.6;;;9.8;;
63690;SDS011;49837;57.280;27.070;2022-12-05T06:39:19;38.3;;;19.8;;
63690;SDS011;49837;57.280;27.070;2022-12-05T06:40:20;25.1;;;13.6;;
63690;SDS011;49837;57.280;27.070;2022-12-05T06:41:20;19.5;;;9.5;;